createdAt,value
2024-01-07T00:00:17.494Z,98259.91
2024-01-07T00:02:43.927Z,98259.94
2024-01-07T00:05:10.442Z,98260.47
2024-01-07T00:07:36.890Z,98265.28
2024-01-07T00:10:03.408Z,98268.22
2024-01-07T00:12:30.451Z,98260.19
2024-01-07T00:14:56.960Z,98269.03
2024-01-07T00:17:23.405Z,98280.50
2024-01-07T00:19:49.925Z,98279.69
2024-01-07T00:22:16.440Z,98281.06
2024-01-07T00:24:43.151Z,98286.38
2024-01-07T00:27:09.725Z,98284.00
2024-01-07T00:32:03.246Z,98286.69
2024-01-07T00:34:29.796Z,98297.09
2024-01-07T00:36:56.494Z,98289.88
2024-01-07T00:39:23.328Z,98300.28
2024-01-07T00:41:49.795Z,98297.34
2024-01-07T00:44:16.190Z,98306.41
2024-01-07T00:46:43.815Z,98311.25
2024-01-07T00:49:11.464Z,98309.09
2024-01-07T00:51:37.961Z,98312.03
2024-01-07T00:54:04.612Z,98313.13
2024-01-07T00:56:30.991Z,98316.84
2024-01-07T00:58:57.374Z,98319.25
2024-01-07T01:01:23.839Z,98314.44
2024-01-07T01:03:50.438Z,98320.56
2024-01-07T01:06:16.955Z,98321.09
2024-01-07T01:08:43.367Z,98334.72
2024-01-07T01:11:12.772Z,98331.53
2024-01-07T01:13:39.165Z,98345.13
2024-01-07T01:16:05.625Z,98343.53
2024-01-07T01:18:32.116Z,98337.13
2024-01-07T01:20:58.775Z,98343.53
2024-01-07T01:23:25.167Z,98345.13
2024-01-07T01:25:51.536Z,98350.97
2024-01-07T01:28:17.934Z,98349.91
2024-01-07T01:30:44.395Z,98355.22
2024-01-07T01:33:10.939Z,98362.69
2024-01-07T01:35:37.615Z,98367.22
2024-01-07T01:38:04.312Z,98366.44
2024-01-07T01:40:30.806Z,98368.56
2024-01-07T01:42:57.358Z,98376.00
2024-01-07T01:45:23.827Z,98377.09
2024-01-07T01:47:50.337Z,98388.28
2024-01-07T01:50:18.640Z,98388.28
2024-01-07T01:52:46.022Z,98391.47
2024-01-07T01:55:12.689Z,98387.75
2024-01-07T01:57:39.542Z,98389.84
2024-01-07T02:00:06.555Z,98393.31
2024-01-07T02:02:35.131Z,98408.50
2024-01-07T02:05:02.323Z,98400.78
2024-01-07T02:07:29.100Z,98400.47
2024-01-07T02:09:55.539Z,98407.16
2024-01-07T02:12:21.950Z,98411.13
2024-01-07T02:14:48.317Z,98414.06
2024-01-07T02:17:15.048Z,98412.44
2024-01-07T02:19:41.609Z,98415.09
2024-01-07T02:22:08.092Z,98417.25
2024-01-07T02:24:34.560Z,98417.50
2024-01-07T02:27:04.149Z,98414.84
2024-01-07T02:29:30.597Z,98414.28
2024-01-07T02:31:57.024Z,98421.75
2024-01-07T02:34:23.599Z,98423.03
2024-01-07T02:36:50.177Z,98416.38
2024-01-07T02:39:16.629Z,98413.44
2024-01-07T02:41:43.034Z,98428.63
2024-01-07T02:44:11.644Z,98432.34
2024-01-07T02:46:39.427Z,98436.31
2024-01-07T02:49:05.942Z,98436.28
2024-01-07T02:51:32.470Z,98428.28
2024-01-07T02:53:58.930Z,98438.94
2024-01-07T02:56:25.316Z,98434.69
2024-01-07T02:58:51.685Z,98433.88
2024-01-07T03:01:18.246Z,98437.59
2024-01-07T03:03:44.723Z,98443.97
2024-01-07T03:06:11.140Z,98449.84
2024-01-07T03:08:37.562Z,98448.47
2024-01-07T03:11:07.549Z,98444.72
2024-01-07T03:13:34.655Z,98450.81
2024-01-07T03:16:01.512Z,98452.16
2024-01-07T03:18:28.337Z,98450.78
2024-01-07T03:20:54.783Z,98454.78
2024-01-07T03:23:21.260Z,98453.94
2024-01-07T03:25:47.642Z,98451.00
2024-01-07T03:28:14.093Z,98459.97
2024-01-07T03:30:40.589Z,98464.78
2024-01-07T03:33:07.123Z,98464.50
2024-01-07T03:35:33.594Z,98459.97
2024-01-07T03:38:00.044Z,98472.50
2024-01-07T03:40:26.423Z,98470.91
2024-01-07T03:42:52.834Z,98475.41
2024-01-07T03:45:19.251Z,98473.25
2024-01-07T03:47:45.688Z,98492.16
2024-01-07T03:50:12.108Z,98484.66
2024-01-07T03:52:38.496Z,98480.41
2024-01-07T03:55:05.256Z,98491.06
2024-01-07T03:57:31.692Z,98490.53
2024-01-07T03:59:58.110Z,98489.16
2024-01-07T04:02:24.495Z,98499.00
2024-01-07T04:04:50.954Z,98501.13
2024-01-07T04:07:17.357Z,98503.22
2024-01-07T04:09:44.028Z,98504.78
2024-01-07T04:12:10.516Z,98503.19
2024-01-07T04:14:36.924Z,98503.66
2024-01-07T04:17:03.375Z,98514.31
2024-01-07T04:19:30.021Z,98518.31
2024-01-07T04:21:56.534Z,98522.81
2024-01-07T04:24:22.943Z,98539.28
2024-01-07T04:26:49.305Z,98537.41
2024-01-07T04:29:15.686Z,98529.94
2024-01-07T04:31:42.111Z,98535.75
2024-01-07T04:34:08.664Z,98539.69
2024-01-07T04:36:35.141Z,98539.69
2024-01-07T04:39:01.616Z,98535.44
2024-01-07T04:41:27.990Z,98541.06
2024-01-07T04:43:54.374Z,98547.97
2024-01-07T04:46:20.742Z,98556.53
2024-01-07T04:48:47.403Z,98550.91
2024-01-07T04:51:13.829Z,98559.13
2024-01-07T04:53:40.254Z,98559.38
2024-01-07T04:56:06.760Z,98560.94
2024-01-07T04:58:33.419Z,98569.97
2024-01-07T05:00:59.953Z,98571.25
2024-01-07T05:03:26.490Z,98574.44
2024-01-07T05:05:53.088Z,98578.38
2024-01-07T05:08:19.689Z,98580.50
2024-01-07T05:10:46.248Z,98575.66
2024-01-07T05:13:12.781Z,98585.75
2024-01-07T05:15:39.235Z,98589.72
2024-01-07T05:18:08.294Z,98603.25
2024-01-07T05:20:34.744Z,98602.69
2024-01-07T05:23:01.110Z,98587.72
2024-01-07T05:25:27.487Z,98604.25
2024-01-07T05:27:53.884Z,98602.16
2024-01-07T05:30:20.324Z,98607.72
2024-01-07T05:32:46.816Z,98601.59
2024-01-07T05:35:13.308Z,98606.34
2024-01-07T05:37:39.682Z,98607.66
2024-01-07T05:40:07.405Z,98612.19
2024-01-07T05:42:34.017Z,98614.25
2024-01-07T05:45:00.518Z,98606.22
2024-01-07T05:47:26.961Z,98617.41
2024-01-07T05:49:53.746Z,98621.13
2024-01-07T05:52:20.197Z,98624.81
2024-01-07T05:54:46.798Z,98635.72
2024-01-07T05:57:13.268Z,98640.78
2024-01-07T05:59:39.640Z,98637.56
2024-01-07T06:02:06.035Z,98642.06
2024-01-07T06:04:32.542Z,98658.00
2024-01-07T06:07:01.485Z,98651.09
2024-01-07T06:09:28.807Z,98659.66
2024-01-07T06:11:55.210Z,98664.97
2024-01-07T06:14:21.828Z,98667.84
2024-01-07T06:16:48.452Z,98683.81
2024-01-07T06:19:15.947Z,98676.06
2024-01-07T06:21:42.513Z,98677.94
2024-01-07T06:24:09.038Z,98684.53
2024-01-07T06:26:35.533Z,98685.84
2024-01-07T06:29:02.184Z,98678.34
2024-01-07T06:31:28.836Z,98679.41
2024-01-07T06:33:58.702Z,98693.97
2024-01-07T06:36:25.860Z,98704.38
2024-01-07T06:38:52.253Z,98712.56
2024-01-07T06:41:18.624Z,98720.06
2024-01-07T06:43:44.990Z,98738.94
2024-01-07T06:46:11.366Z,98743.19
2024-01-07T06:48:37.861Z,98742.88
2024-01-07T06:51:04.728Z,98741.00
2024-01-07T06:53:31.249Z,98752.69
2024-01-07T06:55:57.634Z,98739.66
2024-01-07T06:58:24.007Z,98736.75
2024-01-07T07:00:51.941Z,98756.16
2024-01-07T07:03:18.410Z,98750.84
2024-01-07T07:05:44.859Z,98756.16
2024-01-07T07:08:11.306Z,98762.53
2024-01-07T07:10:38.157Z,98759.06
2024-01-07T07:13:04.656Z,98769.94
2024-01-07T07:15:31.201Z,98763.56
2024-01-07T07:17:58.317Z,98769.94
2024-01-07T07:20:24.788Z,98777.09
2024-01-07T07:22:51.691Z,98773.41
2024-01-07T07:25:18.130Z,98785.88
2024-01-07T07:27:44.828Z,98792.00
2024-01-07T07:30:11.317Z,98794.88
2024-01-07T07:32:39.797Z,98799.41
2024-01-07T07:35:06.256Z,98799.66
2024-01-07T07:37:32.683Z,98802.31
2024-01-07T07:39:59.119Z,98807.88
2024-01-07T07:42:27.154Z,98809.69
2024-01-07T07:44:54.907Z,98815.59
2024-01-07T07:47:21.867Z,98820.91
2024-01-07T07:49:48.330Z,98820.13
2024-01-07T07:52:15.547Z,98827.50
2024-01-07T07:54:42.089Z,98825.09
2024-01-07T07:57:08.496Z,98836.53
2024-01-07T07:59:34.866Z,98846.91
2024-01-07T08:02:01.649Z,98848.28
2024-01-07T08:04:28.314Z,98851.75
2024-01-07T08:06:57.271Z,98867.16
2024-01-07T08:09:26.110Z,98868.75
2024-01-07T08:11:52.517Z,98869.81
2024-01-07T08:14:18.885Z,98876.63
2024-01-07T08:16:45.350Z,98885.97
2024-01-07T08:19:11.866Z,98883.56
2024-01-07T08:21:38.384Z,98888.31
2024-01-07T08:24:05.245Z,98889.13
2024-01-07T08:26:32.568Z,98884.25
2024-01-07T08:28:59.492Z,98888.50
2024-01-07T08:31:26.056Z,98901.72
2024-01-07T08:33:52.625Z,98907.63
2024-01-07T08:36:19.715Z,98909.00
2024-01-07T08:38:46.847Z,98918.81
2024-01-07T08:41:13.218Z,98918.81
2024-01-07T08:43:39.617Z,98924.31
2024-01-07T08:46:06.121Z,98929.09
2024-01-07T08:48:32.667Z,98935.09
2024-01-07T08:50:59.136Z,98946.19
2024-01-07T08:53:25.574Z,98944.31
2024-01-07T08:55:52.002Z,98946.19
2024-01-07T08:58:18.474Z,98946.81
2024-01-07T09:00:45.083Z,98954.41
2024-01-07T09:03:11.503Z,98951.03
2024-01-07T09:05:38.051Z,98962.50
2024-01-07T09:08:05.750Z,98966.13
2024-01-07T09:10:32.296Z,98965.31
2024-01-07T09:12:58.710Z,98970.84
2024-01-07T09:15:25.421Z,98971.09
2024-01-07T09:17:51.954Z,98969.09
2024-01-07T09:20:18.372Z,98976.25
2024-01-07T09:22:44.947Z,98983.13
2024-01-07T09:25:11.392Z,98978.41
2024-01-07T09:27:37.809Z,98976.59
2024-01-07T09:30:04.725Z,98992.72
2024-01-07T09:32:31.226Z,98989.66
2024-01-07T09:34:58.983Z,98995.56
2024-01-07T09:37:25.934Z,99000.72
2024-01-07T09:39:52.580Z,98999.53
2024-01-07T09:42:19.224Z,99005.25
2024-01-07T09:44:45.677Z,99009.03
2024-01-07T09:47:15.374Z,99011.78
2024-01-07T09:49:41.859Z,99015.50
2024-01-07T09:52:11.822Z,99013.50
2024-01-07T09:54:41.618Z,99013.59
2024-01-07T09:57:08.273Z,99007.38
2024-01-07T09:59:34.868Z,99016.03
2024-01-07T10:02:01.523Z,99015.94
2024-01-07T10:04:31.569Z,99017.78
2024-01-07T10:06:58.184Z,99018.25
2024-01-07T10:09:24.898Z,99024.38
2024-01-07T10:11:51.324Z,99024.84
2024-01-07T10:14:17.737Z,99017.91
2024-01-07T10:16:44.094Z,99027.75
2024-01-07T10:19:10.546Z,99017.81
2024-01-07T10:21:38.812Z,99022.59
2024-01-07T10:24:08.524Z,99024.66
2024-01-07T10:26:35.801Z,99015.31
2024-01-07T10:29:03.065Z,99020.53
2024-01-07T10:31:30.741Z,99025.28
2024-01-07T10:33:57.540Z,99023.09
2024-01-07T10:36:24.087Z,99027.38
2024-01-07T10:38:50.771Z,99027.72
2024-01-07T10:41:19.976Z,99037.16
2024-01-07T10:43:49.877Z,99025.38
2024-01-07T10:46:16.505Z,99028.03
2024-01-07T10:49:01.432Z,99030.13
2024-01-07T10:51:28.674Z,99034.28
2024-01-07T10:53:55.666Z,99036.94
2024-01-07T10:56:26.251Z,99033.50
2024-01-07T10:58:53.049Z,99026.88
2024-01-07T11:01:19.895Z,99038.81
2024-01-07T11:03:49.105Z,99030.72
2024-01-07T11:06:17.842Z,99028.88
2024-01-07T11:08:46.267Z,99031.06
2024-01-07T11:11:26.952Z,99023.09
2024-01-07T11:13:53.342Z,99029.69
2024-01-07T11:16:41.016Z,99027.03
2024-01-07T11:19:07.477Z,99025.06
2024-01-07T11:21:34.113Z,99026.59
2024-01-07T11:24:00.514Z,99025.78
2024-01-07T11:26:29.345Z,99028.69
2024-01-07T11:28:57.252Z,99028.09
2024-01-07T11:31:42.699Z,99026.13
2024-01-07T11:34:09.482Z,99030.84
2024-01-07T11:36:36.394Z,99029.34
2024-01-07T11:39:03.520Z,99034.75
2024-01-07T11:41:30.221Z,99029.22
2024-01-07T11:43:59.548Z,99028.41
2024-01-07T11:46:28.019Z,99030.94
2024-01-07T11:48:55.263Z,99038.09
2024-01-07T11:51:21.706Z,99040.41
2024-01-07T11:53:48.832Z,99032.41
2024-01-07T11:56:15.225Z,99026.84
2024-01-07T11:58:42.104Z,99029.50
2024-01-07T12:01:08.622Z,99035.63
2024-01-07T12:03:35.343Z,99034.59
2024-01-07T12:06:01.852Z,99035.19
2024-01-07T12:08:28.376Z,99038.41
2024-01-07T12:10:55.730Z,99032.97
2024-01-07T12:13:22.126Z,99040.50
2024-01-07T12:15:48.623Z,99042.56
2024-01-07T12:18:16.004Z,99043.16
2024-01-07T12:20:42.495Z,99042.66
2024-01-07T12:23:09.405Z,99041.06
2024-01-07T12:25:36.189Z,99053.88
2024-01-07T12:28:02.909Z,99045.38
2024-01-07T12:30:29.637Z,99054.47
2024-01-07T12:32:56.166Z,99047.16
2024-01-07T12:35:22.720Z,99046.63
2024-01-07T12:37:49.147Z,99048.66
2024-01-07T12:40:15.720Z,99053.59
2024-01-07T12:42:46.100Z,99047.09
2024-01-07T12:45:15.690Z,99057.72
2024-01-07T12:47:43.137Z,99065.44
2024-01-07T12:50:10.931Z,99057.47
2024-01-07T12:52:38.388Z,99062.38
2024-01-07T12:55:04.925Z,99065.63
2024-01-07T12:57:31.351Z,99064.81
2024-01-07T12:59:57.733Z,99074.19
2024-01-07T13:02:24.636Z,99070.97
2024-01-07T13:04:51.440Z,99073.69
2024-01-07T13:07:18.009Z,99073.19
2024-01-07T13:09:45.744Z,99070.81
2024-01-07T13:12:12.227Z,99070.06
2024-01-07T13:14:38.659Z,99077.00
2024-01-07T13:17:05.054Z,99071.66
2024-01-07T13:19:31.504Z,99074.38
2024-01-07T13:22:00.494Z,99074.97
2024-01-07T13:24:26.987Z,99075.31
2024-01-07T13:26:54.059Z,99077.78
2024-01-07T13:29:20.493Z,99078.88
2024-01-07T13:31:47.313Z,99079.69
2024-01-07T13:34:15.457Z,99082.91
2024-01-07T13:36:43.042Z,99084.13
2024-01-07T13:39:09.445Z,99083.75
2024-01-07T13:41:35.926Z,99085.44
2024-01-07T13:44:04.015Z,99083.03
2024-01-07T13:46:31.567Z,99081.19
2024-01-07T13:48:58.277Z,99087.66
2024-01-07T13:51:24.781Z,99084.16
2024-01-07T13:53:51.206Z,99093.28
2024-01-07T13:56:17.594Z,99092.50
2024-01-07T13:58:49.041Z,99082.56
2024-01-07T14:01:17.421Z,99095.38
2024-01-07T14:03:43.953Z,99093.47
2024-01-07T14:06:10.350Z,99103.09
2024-01-07T14:08:36.724Z,99109.22
2024-01-07T14:11:04.462Z,99099.81
2024-01-07T14:13:31.009Z,99111.34
2024-01-07T14:15:57.559Z,99110.78
2024-01-07T14:18:25.063Z,99110.19
2024-01-07T14:20:51.470Z,99110.75
2024-01-07T14:23:19.289Z,99115.53
2024-01-07T14:25:45.681Z,99113.69
2024-01-07T14:28:12.541Z,99115.53
2024-01-07T14:30:39.546Z,99122.72
2024-01-07T14:33:06.326Z,99120.88
2024-01-07T14:35:32.814Z,99125.63
2024-01-07T14:38:00.521Z,99136.03
2024-01-07T14:40:27.212Z,99132.47
2024-01-07T14:42:59.249Z,99130.75
2024-01-07T14:45:28.678Z,99134.66
2024-01-07T14:47:55.120Z,99142.13
2024-01-07T14:50:26.509Z,99141.31
2024-01-07T14:52:56.320Z,99145.59
2024-01-07T14:55:22.792Z,99144.53
2024-01-07T14:57:50.348Z,99153.63
2024-01-07T15:00:16.856Z,99155.66
2024-01-07T15:02:43.253Z,99154.78
2024-01-07T15:05:09.756Z,99155.53
2024-01-07T15:07:36.213Z,99161.19
2024-01-07T15:10:02.649Z,99170.31
2024-01-07T15:12:36.617Z,99167.16
2024-01-07T15:15:06.666Z,99175.78
2024-01-07T15:17:33.115Z,99170.22
2024-01-07T15:19:59.667Z,99165.63
2024-01-07T15:22:26.195Z,99166.91
2024-01-07T15:24:53.575Z,99177.84
2024-01-07T15:27:20.334Z,99161.50
2024-01-07T15:29:47.792Z,99169.19
2024-01-07T15:32:14.207Z,99172.13
2024-01-07T15:34:41.121Z,99169.94
2024-01-07T15:37:07.685Z,99180.28
2024-01-07T15:39:34.185Z,99183.81
2024-01-07T15:42:00.898Z,99189.38
2024-01-07T15:44:28.426Z,99191.81
2024-01-07T15:46:54.951Z,99194.16
2024-01-07T15:49:21.402Z,99191.47
2024-01-07T15:51:47.924Z,99193.56
2024-01-07T15:54:14.393Z,99194.38
2024-01-07T15:56:40.758Z,99206.38
2024-01-07T15:59:08.449Z,99204.44
2024-01-07T16:01:35.640Z,99208.16
2024-01-07T16:04:02.215Z,99209.44
2024-01-07T16:06:28.969Z,99206.44
2024-01-07T16:08:55.334Z,99218.41
2024-01-07T16:11:21.752Z,99213.56
2024-01-07T16:13:48.139Z,99216.94
2024-01-07T16:16:14.602Z,99214.31
2024-01-07T16:18:41.191Z,99217.69
2024-01-07T16:21:07.696Z,99223.09
2024-01-07T16:23:34.415Z,99226.41
2024-01-07T16:26:00.852Z,99221.06
2024-01-07T16:28:27.227Z,99234.91
2024-01-07T16:30:56.081Z,99229.56
2024-01-07T16:33:22.865Z,99233.03
2024-01-07T16:35:49.333Z,99235.41
2024-01-07T16:38:17.700Z,99239.69
2024-01-07T16:40:44.287Z,99239.91
2024-01-07T16:43:11.046Z,99244.84
2024-01-07T16:45:38.758Z,99248.66
2024-01-07T16:48:06.768Z,99247.16
2024-01-07T16:50:34.327Z,99243.78
2024-01-07T16:53:01.001Z,99254.22
2024-01-07T16:55:27.369Z,99250.19
2024-01-07T16:57:53.719Z,99243.25
2024-01-07T17:00:20.665Z,99256.06
2024-01-07T17:02:47.945Z,99257.22
2024-01-07T17:05:14.474Z,99258.75
2024-01-07T17:07:40.941Z,99267.81
2024-01-07T17:10:09.245Z,99268.63
2024-01-07T17:12:35.948Z,99264.16
2024-01-07T17:15:03.368Z,99266.97
2024-01-07T17:17:29.872Z,99265.94
2024-01-07T17:19:56.498Z,99266.97
2024-01-07T17:22:22.991Z,99270.56
2024-01-07T17:24:49.716Z,99271.69
2024-01-07T17:27:16.165Z,99273.22
2024-01-07T17:29:42.565Z,99280.69
2024-01-07T17:32:12.366Z,99282.53
2024-01-07T17:34:38.826Z,99282.84
2024-01-07T17:37:05.222Z,99287.94
2024-01-07T17:39:34.318Z,99287.69
2024-01-07T17:42:02.721Z,99295.03
2024-01-07T17:44:29.157Z,99291.84
2024-01-07T17:46:55.790Z,99291.19
2024-01-07T17:49:22.269Z,99298.06
2024-01-07T17:51:48.691Z,99303.41
2024-01-07T17:54:15.150Z,99303.31
2024-01-07T17:56:41.516Z,99309.22
2024-01-07T17:59:09.023Z,99298.28
2024-01-07T18:01:35.440Z,99300.38
2024-01-07T18:04:01.831Z,99302.47
2024-01-07T18:06:28.296Z,99300.84
2024-01-07T18:08:54.883Z,99309.13
2024-01-07T18:11:21.597Z,99303.44
2024-01-07T18:13:48.899Z,99305.06
2024-01-07T18:16:15.391Z,99304.84
2024-01-07T18:18:41.977Z,99304.03
2024-01-07T18:21:08.614Z,99310.72
2024-01-07T18:23:34.987Z,99307.00
2024-01-07T18:26:01.388Z,99315.94
2024-01-07T18:28:27.810Z,99303.22
2024-01-07T18:30:55.112Z,99308.91
2024-01-07T18:33:21.708Z,99305.25
2024-01-07T18:35:50.377Z,99315.00
2024-01-07T18:38:17.653Z,99311.94
2024-01-07T18:40:44.217Z,99311.06
2024-01-07T18:43:10.677Z,99318.34
2024-01-07T18:50:30.235Z,99314.13
2024-01-07T18:52:56.678Z,99319.53
2024-01-07T18:55:24.122Z,99320.66
2024-01-07T18:57:50.594Z,99324.69
2024-01-07T19:00:17.650Z,99326.19
2024-01-07T19:02:44.070Z,99325.47
2024-01-07T19:05:10.796Z,99321.94
2024-01-07T19:07:37.842Z,99323.72
2024-01-07T19:10:04.331Z,99321.59
2024-01-07T19:12:30.699Z,99319.50
2024-01-07T19:14:57.086Z,99318.84
2024-01-07T19:17:23.710Z,99317.72
2024-01-07T19:19:51.079Z,99325.94
2024-01-07T19:22:17.514Z,99330.91
2024-01-07T19:24:43.945Z,99325.66
2024-01-07T19:27:10.385Z,99329.88
2024-01-07T19:29:36.798Z,99340.56
2024-01-07T19:32:03.548Z,99335.69
2024-01-07T19:34:30.996Z,99334.09
2024-01-07T19:36:57.917Z,99341.50
2024-01-07T19:39:24.322Z,99340.88
2024-01-07T19:41:50.751Z,99345.56
2024-01-07T19:44:20.956Z,99340.78
2024-01-07T19:46:47.654Z,99344.28
2024-01-07T19:49:14.471Z,99349.84
2024-01-07T19:51:40.990Z,99349.03
2024-01-07T19:54:07.388Z,99354.97
2024-01-07T19:56:33.994Z,99350.66
2024-01-07T19:59:00.512Z,99362.72
2024-01-07T20:01:26.913Z,99360.06
2024-01-07T20:03:53.396Z,99362.97
2024-01-07T20:06:21.150Z,99366.19
2024-01-07T20:08:49.868Z,99367.19
2024-01-07T20:11:19.732Z,99371.94
2024-01-07T20:13:49.254Z,99373.25
2024-01-07T20:16:20.071Z,99379.88
2024-01-07T20:18:50.874Z,99375.06
2024-01-07T20:21:25.222Z,99379.25
2024-01-07T20:23:52.301Z,99373.84
2024-01-07T20:26:18.928Z,99373.84
2024-01-07T20:28:45.445Z,99374.66
2024-01-07T20:31:11.970Z,99380.53
2024-01-07T20:33:38.695Z,99363.38
2024-01-07T20:36:08.908Z,99371.06
2024-01-07T20:38:35.627Z,99372.13
2024-01-07T20:41:02.172Z,99369.16
2024-01-07T20:43:28.547Z,99374.72
2024-01-07T20:45:57.462Z,99377.06
2024-01-07T20:48:24.476Z,99375.94
2024-01-07T20:50:51.222Z,99380.94
2024-01-07T20:53:19.757Z,99365.91
2024-01-07T20:55:46.243Z,99369.38
2024-01-07T20:58:12.716Z,99369.78
2024-01-07T21:00:39.893Z,99380.06
2024-01-07T21:03:06.390Z,99386.03
2024-01-07T21:05:33.244Z,99381.97
2024-01-07T21:07:59.807Z,99374.13
2024-01-07T21:10:26.218Z,99376.16
2024-01-07T21:12:53.058Z,99387.69
2024-01-07T21:15:20.211Z,99388.38
2024-01-07T21:17:47.083Z,99404.22
2024-01-07T21:20:14.039Z,99398.06
2024-01-07T21:22:40.458Z,99399.69
2024-01-07T21:25:07.801Z,99396.03
2024-01-07T21:27:34.709Z,99388.59
2024-01-07T21:30:02.914Z,99385.66
2024-01-07T21:32:31.326Z,99386.34
2024-01-07T21:34:58.281Z,99395.56
2024-01-07T21:37:24.680Z,99388.94
2024-01-07T21:39:51.852Z,99387.53
2024-01-07T21:42:19.855Z,99391.03
2024-01-07T21:44:46.331Z,99389.97
2024-01-07T21:47:13.065Z,99399.66
2024-01-07T21:49:48.583Z,99400.22
2024-01-07T21:52:15.443Z,99394.38
2024-01-07T21:54:42.215Z,99402.69
2024-01-07T21:57:08.762Z,99394.72
2024-01-07T21:59:35.232Z,99403.81
2024-01-07T22:02:01.762Z,99416.13
2024-01-07T22:04:28.506Z,99409.75
2024-01-07T22:06:54.875Z,99413.16
2024-01-07T22:09:21.308Z,99407.63
2024-01-07T22:11:47.711Z,99408.69
2024-01-07T22:14:14.804Z,99422.59
2024-01-07T22:16:41.691Z,99422.16
2024-01-07T22:19:08.168Z,99415.50
2024-01-07T22:21:34.597Z,99426.03
2024-01-07T22:24:01.422Z,99417.31
2024-01-07T22:26:27.854Z,99419.75
2024-01-07T22:28:54.353Z,99421.88
2024-01-07T22:31:20.812Z,99423.16
2024-01-07T22:33:50.147Z,99423.16
2024-01-07T22:36:16.581Z,99426.31
2024-01-07T22:38:43.041Z,99430.84
2024-01-07T22:41:09.558Z,99429.25
2024-01-07T22:43:36.004Z,99425.28
2024-01-07T22:46:02.503Z,99435.13
2024-01-07T22:48:32.761Z,99434.59
2024-01-07T22:50:59.924Z,99432.66
2024-01-07T22:53:27.049Z,99430.00
2024-01-07T22:55:54.113Z,99428.84
2024-01-07T22:58:20.705Z,99433.41
2024-01-07T23:00:49.386Z,99433.66
2024-01-07T23:03:16.198Z,99432.28
2024-01-07T23:05:42.705Z,99432.28
2024-01-07T23:08:09.167Z,99434.63
2024-01-07T23:10:35.723Z,99431.41
2024-01-07T23:13:02.118Z,99433.59
2024-01-07T23:15:28.520Z,99435.69
2024-01-07T23:17:55.113Z,99441.59
2024-01-07T23:20:21.688Z,99437.81
2024-01-07T23:22:48.140Z,99435.88
2024-01-07T23:25:14.569Z,99434.59
2024-01-07T23:27:41.512Z,99435.22
2024-01-07T23:30:08.458Z,99439.44
2024-01-07T23:32:35.087Z,99440.50
2024-01-07T23:35:01.674Z,99443.66
2024-01-07T23:37:28.153Z,99436.09
2024-01-07T23:39:54.553Z,99434.75
2024-01-07T23:42:20.936Z,99444.28
2024-01-07T23:44:47.320Z,99439.44
2024-01-07T23:47:13.785Z,99453.38
2024-01-07T23:49:40.193Z,99448.81
2024-01-07T23:52:06.591Z,99444.78
2024-01-07T23:54:32.958Z,99449.81
2024-01-07T23:56:59.331Z,99448.66
2024-01-07T23:59:25.812Z,99448.34
